MeteoGriva Station Historical Data
 
Daily Summary for July 14, 2020 Units:  Metric    English   Both
Daily Weekly Monthly Yearly Custom
  Current: High: Low: Average:
Temperature: 19.2 °C 21.5 °C 17.3 °C 19.4 °C
Dew Point: 16.7 °C 17 °C 11.8 °C 14.2 °C
Humidity: 85.7% 93.3% 54% 73%
Wind Speed: 0.9km/h 2.7km/h 0km/h 0.2km/h
Wind Gust: 12.2km/h 16.3km/h - -
WindSouth - - WSW
Pressure: 1013.2 hPa 1013.2 hPa 1010.5 hPa -
Precipitation: 0.0 mm      
Historical Graphs
 
 
Tabular Data for July 14, 2020
Time Temperature Dew Point Pressure Wind Wind Speed Wind Gust Humidity Rainfall Rate (Hourly) solar
00:04 21.5 °C 11.8 °C 1010.5 hPa NNW 1.7 km/h 12.2 km/h 54% 0.0 mm 0 W/m2
00:09 21.5 °C 11.8 °C 1010.5 hPa NNE 0.6 km/h 12.2 km/h 54% 0.0 mm 0 W/m2
00:13 21.5 °C 12.1 °C 1010.8 hPa Calm   7.9 km/h 55% 0.0 mm 0 W/m2
00:19 21.5 °C 12 °C 1010.8 hPa NNW 2.7 km/h 16.3 km/h 54.8% 0.0 mm 0 W/m2
00:24 21.4 °C 12 °C 1010.5 hPa NW 2.1 km/h 12.2 km/h 55% 0.0 mm 0 W/m2
00:29 21.3 °C 12 °C 1010.8 hPa North 0.6 km/h 12.2 km/h 55.3% 0.0 mm 0 W/m2
00:34 21.2 °C 12.1 °C 1010.8 hPa West 0.4 km/h 4 km/h 56% 0.0 mm 0 W/m2
00:44 21.1 °C 12 °C 1010.8 hPa East 0.2 km/h 7.9 km/h 56% 0.0 mm 0 W/m2
00:49 20.9 °C 11.9 °C 1010.8 hPa Calm     56.3% 0.0 mm 0 W/m2
00:54 20.8 °C 12.1 °C 1010.8 hPa Calm   4 km/h 57.7% 0.0 mm 0 W/m2
00:59 20.8 °C 12 °C 1010.8 hPa NE 0.2 km/h 4 km/h 57% 0.0 mm 0 W/m2
01:04 20.7 °C 11.9 °C 1010.8 hPa WNW 0.6 km/h 4 km/h 57% 0.0 mm 0 W/m2
01:09 20.7 °C 11.9 °C 1010.8 hPa North 0.2 km/h 7.9 km/h 57% 0.0 mm 0 W/m2
01:14 20.7 °C 11.9 °C 1011.2 hPa Calm   4 km/h 57% 0.0 mm 0 W/m2
01:19 20.7 °C 12 °C 1011.2 hPa North 0.2 km/h 7.9 km/h 57.9% 0.0 mm 0 W/m2
01:24 20.6 °C 12.2 °C 1011.2 hPa Calm     58.7% 0.0 mm 0 W/m2
01:29 20.3 °C 12 °C 1011.2 hPa NNW 1 km/h 7.9 km/h 58.9% 0.0 mm 0 W/m2
01:34 20.2 °C 11.8 °C 1011.2 hPa Calm   7.9 km/h 58.6% 0.0 mm 0 W/m2
01:39 20.2 °C 11.9 °C 1011.2 hPa WNW 0.2 km/h 12.2 km/h 59.1% 0.0 mm 0 W/m2
01:44 20.2 °C 11.9 °C 1011.2 hPa NW 0.2 km/h 12.2 km/h 59% 0.0 mm 0 W/m2
01:49 20.2 °C 12.2 °C 1011.2 hPa Calm     60% 0.0 mm 0 W/m2
01:54 20.1 °C 12.1 °C 1011.5 hPa Calm     60% 0.0 mm 0 W/m2
01:59 20.1 °C 12.1 °C 1011.2 hPa NW 0.5 km/h 7.9 km/h 60% 0.0 mm 0 W/m2
02:04 20.1 °C 12.1 °C 1011.2 hPa North 0.5 km/h 7.9 km/h 60% 0.0 mm 0 W/m2
02:09 20 °C 12 °C 1011.2 hPa WNW 0.5 km/h 7.9 km/h 60% 0.0 mm 0 W/m2
02:14 20 °C 12 °C 1011.2 hPa Calm   7.9 km/h 60% 0.0 mm 0 W/m2
02:19 20 °C 12 °C 1011.2 hPa NNW 0.6 km/h 7.9 km/h 60% 0.0 mm 0 W/m2
02:24 20 °C 12.1 °C 1011.5 hPa North 0.2 km/h 4 km/h 60.7% 0.0 mm 0 W/m2
02:29 20 °C 12.2 °C 1011.2 hPa NNW 1.1 km/h 7.9 km/h 61% 0.0 mm 0 W/m2
02:34 20 °C 12.2 °C 1011.2 hPa NNW 0.4 km/h 7.9 km/h 61% 0.0 mm 0 W/m2
02:39 20 °C 12.2 °C 1011.5 hPa Calm   7.9 km/h 61% 0.0 mm 0 W/m2
02:44 20 °C 12.2 °C 1011.2 hPa NW 1.2 km/h 7.9 km/h 61% 0.0 mm 0 W/m2
02:49 20.1 °C 12.4 °C 1011.5 hPa West 1.1 km/h 7.9 km/h 61.3% 0.0 mm 0 W/m2
02:54 20.1 °C 12.5 °C 1011.2 hPa WNW 0.3 km/h 7.9 km/h 61.8% 0.0 mm 0 W/m2
02:59 20.1 °C 12.6 °C 1011.2 hPa WNW 0.2 km/h 4 km/h 62% 0.0 mm 0 W/m2
03:04 20.1 °C 12.8 °C 1011.2 hPa Calm   4 km/h 63% 0.0 mm 0 W/m2
03:09 20.1 °C 12.8 °C 1011.2 hPa Calm     63% 0.0 mm 0 W/m2
03:14 20.1 °C 12.8 °C 1011.2 hPa Calm   4 km/h 63% 0.0 mm 0 W/m2
03:19 20.1 °C 13 °C 1011.5 hPa Calm     63.8% 0.0 mm 0 W/m2
03:24 20.1 °C 13.1 °C 1011.2 hPa Calm     64% 0.0 mm 0 W/m2
03:29 20.2 °C 13.2 °C 1011.2 hPa East 0.2 km/h 7.9 km/h 64% 0.0 mm 0 W/m2
03:34 20.2 °C 13.2 °C 1011.2 hPa Calm     64% 0.0 mm 0 W/m2
03:39 20.2 °C 13.2 °C 1011.5 hPa Calm     64% 0.0 mm 0 W/m2
03:44 20.2 °C 13.2 °C 1011.5 hPa West 0.1 km/h 4 km/h 64% 0.0 mm 0 W/m2
03:49 20.3 °C 13.3 °C 1011.5 hPa WNW 0.2 km/h 4 km/h 64% 0.0 mm 0 W/m2
03:54 20.3 °C 13.3 °C 1011.2 hPa NW 0.4 km/h 7.9 km/h 64.2% 0.0 mm 0 W/m2
03:59 20.2 °C 13.4 °C 1011.2 hPa Calm   7.9 km/h 65% 0.0 mm 0 W/m2
04:04 20.2 °C 13.4 °C 1011.2 hPa Calm     65% 0.0 mm 0 W/m2
04:09 20.2 °C 13.4 °C 1011.2 hPa Calm     65.1% 0.0 mm 0 W/m2
04:14 20.1 °C 13.4 °C 1011.2 hPa Calm     65.6% 0.0 mm 0 W/m2
04:19 20.1 °C 13.5 °C 1011.2 hPa Calm     66% 0.0 mm 0 W/m2
04:24 20 °C 13.5 °C 1011.2 hPa Calm     66% 0.0 mm 0 W/m2
04:29 20 °C 13.5 °C 1011.2 hPa Calm     66% 0.0 mm 0 W/m2
04:34 20 °C 13.5 °C 1011.2 hPa Calm     66% 0.0 mm 0 W/m2
04:39 20 °C 13.5 °C 1011.2 hPa Calm     66% 0.0 mm 0 W/m2
04:44 20 °C 13.7 °C 1011.2 hPa Calm     67% 0.0 mm 0 W/m2
04:49 20 °C 13.7 °C 1011.2 hPa Calm     67% 0.0 mm 0 W/m2
04:54 19.9 °C 13.6 °C 1011.2 hPa Calm     67% 0.0 mm 0 W/m2
04:59 19.8 °C 13.5 °C 1011.2 hPa Calm     67% 0.0 mm 0 W/m2
05:04 19.8 °C 13.5 °C 1011.2 hPa Calm     66.9% 0.0 mm 0 W/m2
05:09 19.8 °C 13.5 °C 1011.2 hPa Calm     67% 0.0 mm 0 W/m2
05:14 19.8 °C 13.5 °C 1011.2 hPa Calm     67% 0.0 mm 0 W/m2
05:19 19.8 °C 13.5 °C 1011.2 hPa Calm     67% 0.0 mm 0 W/m2
05:24 19.8 °C 13.5 °C 1011.2 hPa Calm     67% 0.0 mm 0 W/m2
05:29 19.8 °C 13.7 °C 1011.2 hPa Calm     67.8% 0.0 mm 0 W/m2
05:34 19.7 °C 13.6 °C 1011.2 hPa Calm     68% 0.0 mm 0 W/m2
05:39 19.7 °C 13.4 °C 1011.2 hPa Calm     67.2% 0.0 mm 0 W/m2
05:44 19.7 °C 13.6 °C 1011.2 hPa Calm     68% 0.0 mm 0 W/m2
05:49 19.7 °C 13.8 °C 1011.5 hPa Calm     68.6% 0.0 mm 0 W/m2
05:54 19.6 °C 14 °C 1011.5 hPa Calm     69.8% 0.0 mm 0 W/m2
05:59 19.6 °C 14 °C 1011.5 hPa Calm     70% 0.0 mm 0 W/m2
06:14 19.6 °C 14 °C 1011.5 hPa Calm     70% 0.0 mm 0 W/m2
06:19 19.5 °C 14.1 °C 1011.5 hPa NNW 0.1 km/h 4 km/h 71.2% 0.0 mm 0 W/m2
06:24 19.5 °C 14.2 °C 1011.5 hPa NNW 2.2 km/h 12.2 km/h 71.7% 0.0 mm 0 W/m2
06:29 19.4 °C 14.2 °C 1011.5 hPa Calm     72% 0.0 mm 0 W/m2
06:34 19.5 °C 14.8 °C 1011.5 hPa Calm     74.3% 0.0 mm 0 W/m2
06:39 19.4 °C 14.5 °C 1011.9 hPa Calm     73.7% 0.0 mm 0 W/m2
06:44 19.4 °C 14.3 °C 1011.5 hPa Calm     72.2% 0.0 mm 0 W/m2
06:49 19.3 °C 14.3 °C 1011.5 hPa Calm     72.9% 0.0 mm 0 W/m2
06:54 19.1 °C 14.1 °C 1011.9 hPa Calm     73% 0.0 mm 0 W/m2
06:59 19.1 °C 13.9 °C 1011.9 hPa Calm     72.2% 0.0 mm 2 W/m2
07:04 19.1 °C 13.9 °C 1011.9 hPa Calm     72.1% 0.0 mm 3 W/m2
07:09 19 °C 14 °C 1011.9 hPa Calm     72.8% 0.0 mm 3 W/m2
07:14 19 °C 14 °C 1012.2 hPa Calm     73% 0.0 mm 2 W/m2
07:19 18.9 °C 14.6 °C 1011.9 hPa Calm     75.9% 0.0 mm 2 W/m2
07:24 18.8 °C 15.2 °C 1012.2 hPa Calm     79% 0.0 mm 3 W/m2
07:29 18.7 °C 15.5 °C 1011.9 hPa Calm     81.4% 0.0 mm 5 W/m2
07:34 18.1 °C 15.2 °C 1011.9 hPa Calm     83% 0.0 mm 5 W/m2
07:39 18.1 °C 16 °C 1012.2 hPa Calm     87.4% 0.0 mm 4 W/m2
07:44 17.9 °C 16 °C 1012.2 hPa Calm     88.4% 0.0 mm 4 W/m2
07:49 17.7 °C 16 °C 1012.2 hPa Calm     89.3% 0.0 mm 6 W/m2
07:54 17.3 °C 15.9 °C 1012.2 hPa Calm     91.7% 0.0 mm 6 W/m2
07:59 17.3 °C 16 °C 1012.2 hPa Calm     92.2% 0.0 mm 7 W/m2
08:04 17.3 °C 16 °C 1012.2 hPa Calm     92% 0.0 mm 10 W/m2
08:09 17.3 °C 15.9 °C 1012.2 hPa Calm   4 km/h 91.6% 0.0 mm 16 W/m2
08:14 17.3 °C 16.2 °C 1012.5 hPa NW 0.3 km/h 4 km/h 93.1% 0.0 mm 20 W/m2
08:19 17.3 °C 16.1 °C 1012.2 hPa Calm   7.9 km/h 92.7% 0.0 mm 23 W/m2
08:24 17.3 °C 15.9 °C 1012.2 hPa Calm   4 km/h 91.3% 0.0 mm 23 W/m2
08:29 17.3 °C 15.9 °C 1012.2 hPa Calm   4 km/h 91.4% 0.0 mm 24 W/m2
08:34 17.5 °C 16 °C 1012.2 hPa Calm   4 km/h 91.2% 0.0 mm 25 W/m2
08:39 17.5 °C 15.8 °C 1012.5 hPa Calm     90.2% 0.0 mm 25 W/m2
08:44 17.6 °C 15.2 °C 1012.2 hPa Calm     86.4% 0.0 mm 25 W/m2
08:49 17.7 °C 15.2 °C 1012.5 hPa Calm     86% 0.0 mm 32 W/m2
08:54 18.1 °C 15.9 °C 1012.5 hPa Calm     87.3% 0.0 mm 34 W/m2
08:59 18.1 °C 16.1 °C 1012.5 hPa Calm     88.2% 0.0 mm 32 W/m2
09:04 18.1 °C 16.3 °C 1012.5 hPa Calm     88.9% 0.0 mm 25 W/m2
09:09 18.1 °C 16.3 °C 1012.5 hPa Calm     89.2% 0.0 mm 27 W/m2
09:14 18.2 °C 16.3 °C 1012.5 hPa Calm     88.6% 0.0 mm 35 W/m2
09:19 18.2 °C 16.3 °C 1012.5 hPa Calm     88.6% 0.0 mm 39 W/m2
09:24 18.1 °C 16.1 °C 1012.5 hPa Calm     87.9% 0.0 mm 37 W/m2
09:29 18.1 °C 16.1 °C 1012.9 hPa Calm     88% 0.0 mm 33 W/m2
09:34 18.2 °C 16.4 °C 1012.9 hPa Calm     89% 0.0 mm 33 W/m2
09:39 18.2 °C 16.3 °C 1012.9 hPa Calm     88.3% 0.0 mm 39 W/m2
09:44 18.2 °C 16.3 °C 1012.9 hPa Calm     88.3% 0.0 mm 52 W/m2
09:49 18.2 °C 16.3 °C 1012.9 hPa Calm     88.3% 0.0 mm 73 W/m2
09:54 18.2 °C 16.4 °C 1012.9 hPa Calm     88.9% 0.0 mm 100 W/m2
09:59 18.2 °C 16.7 °C 1012.9 hPa Calm   4 km/h 91.6% 0.0 mm 108 W/m2
10:04 18.1 °C 17 °C 1012.9 hPa Calm     93.3% 0.0 mm 108 W/m2
10:09 18.1 °C 16.5 °C 1012.9 hPa Calm     90.3% 0.0 mm 112 W/m2
10:14 18.4 °C 16.5 °C 1012.9 hPa Calm     88.1% 0.0 mm 116 W/m2
10:19 18.5 °C 16.5 °C 1012.9 hPa Calm     88% 0.0 mm 110 W/m2
10:24 18.5 °C 16.2 °C 1012.9 hPa Calm     86.8% 0.0 mm 90 W/m2
10:29 18.6 °C 15.7 °C 1012.9 hPa Calm     83.4% 0.0 mm 108 W/m2
10:34 18.9 °C 15.8 °C 1012.9 hPa Calm     82.6% 0.0 mm 113 W/m2
10:39 18.9 °C 16 °C 1013.2 hPa Calm     83.2% 0.0 mm 139 W/m2
10:44 19 °C 15.7 °C 1012.9 hPa Calm     81.1% 0.0 mm 153 W/m2
10:49 19.1 °C 15.8 °C 1012.9 hPa South 0.6 km/h 7.9 km/h 81.2% 0.0 mm 160 W/m2
10:54 19.5 °C 16.1 °C 1013.2 hPa SSE 0.7 km/h 7.9 km/h 80.7% 0.0 mm 149 W/m2
10:59 19.6 °C 16 °C 1012.9 hPa Calm     79.8% 0.0 mm 143 W/m2
11:04 19.6 °C 15.9 °C 1012.9 hPa Calm     79% 0.0 mm 142 W/m2
11:09 19.6 °C 16.1 °C 1012.9 hPa Calm     79.8% 0.0 mm 135 W/m2
11:14 19.7 °C 16.1 °C 1013.2 hPa Calm     79.6% 0.0 mm 122 W/m2
11:19 19.7 °C 16.3 °C 1012.9 hPa Calm     80.8% 0.0 mm 104 W/m2
11:24 19.7 °C 16.4 °C 1013.2 hPa South 1.3 km/h 7.9 km/h 81.7% 0.0 mm 108 W/m2
11:29 19.6 °C 16.3 °C 1012.9 hPa Calm   4 km/h 81.2% 0.0 mm 109 W/m2
11:34 19.4 °C 16.2 °C 1013.2 hPa SSE 2.3 km/h 7.9 km/h 82.4% 0.0 mm 104 W/m2
11:39 19.2 °C 16.3 °C 1013.2 hPa SSE 0.1 km/h 7.9 km/h 83.6% 0.0 mm 98 W/m2
11:44 19.2 °C 16.5 °C 1013.2 hPa South 2.6 km/h 16.3 km/h 84.7% 0.0 mm 96 W/m2
11:49 19.2 °C 16.7 °C 1013.2 hPa South 0.9 km/h 12.2 km/h 85.7% 0.0 mm 98 W/m2
Juneau County Weather
Compliments of Weather Underground - 2 mb